Time;durP1;ratioP1;P1;durP2;ratioP2;P2;SDS_P1;SDS_P2;PMS_P1;PMS_P2;Temp;Humidity;BMP_temperature;BMP_pressure;BME280_temperature;BME280_humidity;BME280_pressure;Samples;Min_cycle;Max_cycle;Signal;HPM_P1;HPM_P2
2022/12/24 00:02:14;;;;;;;28.65;3.75;;;;;;;;;;5111415;27;20813;-81
2022/12/24 00:04:40;;;;;;;38.78;4.57;;;;;;;;;;5113250;28;20057;-81
2022/12/24 00:07:07;;;;;;;28.98;4.55;;;;;;;;;;5113208;27;20569;-81
2022/12/24 00:09:33;;;;;;;34.97;3.78;;;;;;;;;;5112461;27;20969;-81
2022/12/24 00:12:00;;;;;;;30.45;4.18;;;;;;;;;;5113531;27;20442;-81
2022/12/24 00:14:26;;;;;;;33.00;4.28;;;;;;;;;;5108235;27;20817;-82
2022/12/24 00:16:53;;;;;;;31.13;4.20;;;;;;;;;;5097967;28;20103;-81
2022/12/24 00:19:19;;;;;;;23.05;3.05;;;;;;;;;;5104914;27;20096;-81
2022/12/24 00:21:45;;;;;;;28.73;3.83;;;;;;;;;;5110583;27;20059;-81
2022/12/24 00:24:12;;;;;;;27.48;4.25;;;;;;;;;;5113565;28;20106;-81
2022/12/24 00:26:39;;;;;;;35.45;4.20;;;;;;;;;;5112789;27;20056;-81
2022/12/24 00:29:07;;;;;;;26.15;3.42;;;;;;;;;;5112835;27;20327;-81
2022/12/24 00:31:34;;;;;;;26.83;4.53;;;;;;;;;;5113656;27;20164;-81
2022/12/24 00:34:01;;;;;;;27.85;3.90;;;;;;;;;;5111688;27;20056;-81
2022/12/24 00:36:28;;;;;;;38.75;5.22;;;;;;;;;;5110468;27;20048;-81
2022/12/24 00:38:54;;;;;;;37.15;4.55;;;;;;;;;;5112090;28;20843;-81
2022/12/24 00:41:24;;;;;;;28.80;3.78;;;;;;;;;;5113622;27;20056;-81
2022/12/24 00:43:55;;;;;;;30.02;3.90;;;;;;;;;;5113758;27;20066;-81
2022/12/24 00:46:23;;;;;;;35.05;3.97;;;;;;;;;;5111050;27;20056;-81
2022/12/24 00:48:51;;;;;;;28.08;3.72;;;;;;;;;;5110045;28;20139;-81
2022/12/24 00:51:18;;;;;;;32.28;3.83;;;;;;;;;;5111835;27;20079;-81
2022/12/24 00:53:44;;;;;;;27.85;3.50;;;;;;;;;;5093064;28;20056;-81
2022/12/24 00:56:11;;;;;;;23.70;3.83;;;;;;;;;;5101520;27;20052;-81
2022/12/24 00:58:37;;;;;;;28.55;3.85;;;;;;;;;;5112616;27;20059;-81
2022/12/24 01:01:04;;;;;;;28.02;3.97;;;;;;;;;;5113582;27;20106;-81
2022/12/24 01:03:34;;;;;;;31.90;3.65;;;;;;;;;;5110331;27;20056;-79
2022/12/24 01:06:05;;;;;;;32.10;4.47;;;;;;;;;;5112091;27;20139;-80
2022/12/24 01:08:32;;;;;;;32.55;3.78;;;;;;;;;;5109550;27;20131;-80
2022/12/24 01:10:59;;;;;;;30.58;3.67;;;;;;;;;;5092355;28;20049;-80
2022/12/24 01:13:25;;;;;;;35.25;3.67;;;;;;;;;;5101553;28;20056;-80
2022/12/24 01:15:52;;;;;;;29.40;3.65;;;;;;;;;;5110908;27;20491;-80
2022/12/24 01:18:19;;;;;;;28.30;4.00;;;;;;;;;;5109176;27;20060;-80
2022/12/24 01:20:45;;;;;;;24.98;3.53;;;;;;;;;;5108519;27;20063;-80
2022/12/24 01:23:12;;;;;;;35.75;4.38;;;;;;;;;;5111940;27;20051;-79
2022/12/24 01:25:39;;;;;;;40.65;4.70;;;;;;;;;;5109312;27;20060;-80
2022/12/24 01:28:05;;;;;;;29.60;3.90;;;;;;;;;;5110966;28;20125;-80
2022/12/24 01:30:32;;;;;;;33.50;4.93;;;;;;;;;;5111864;27;20070;-80
2022/12/24 01:32:58;;;;;;;36.95;5.45;;;;;;;;;;5106690;28;20525;-80
2022/12/24 01:35:24;;;;;;;33.17;4.20;;;;;;;;;;5110531;27;20055;-80
2022/12/24 01:37:51;;;;;;;34.53;6.28;;;;;;;;;;5112929;27;20083;-80
2022/12/24 01:43:22;;;;;;;26.98;4.10;;;;;;;;;;5104198;28;20148;-80
2022/12/24 01:45:49;;;;;;;35.90;4.50;;;;;;;;;;5104046;27;20048;-79
2022/12/24 01:48:22;;;;;;;33.33;4.88;;;;;;;;;;5110402;27;20058;-80
2022/12/24 01:50:49;;;;;;;30.42;3.55;;;;;;;;;;5110489;28;20157;-80
2022/12/24 01:53:16;;;;;;;26.20;3.35;;;;;;;;;;5109562;28;20090;-80
2022/12/24 01:55:43;;;;;;;30.95;4.72;;;;;;;;;;5110701;27;20044;-80
2022/12/24 01:58:12;;;;;;;37.20;4.18;;;;;;;;;;5109714;27;20097;-79
2022/12/24 02:00:38;;;;;;;41.50;4.47;;;;;;;;;;5108551;27;20060;-80
2022/12/24 02:03:05;;;;;;;29.15;3.75;;;;;;;;;;5110237;27;20038;-80
2022/12/24 02:05:45;;;;;;;31.88;4.30;;;;;;;;;;5109734;27;20133;-80
2022/12/24 02:08:12;;;;;;;30.38;4.15;;;;;;;;;;5111127;27;20684;-80
2022/12/24 02:10:39;;;;;;;34.30;4.50;;;;;;;;;;5111066;27;20056;-80
2022/12/24 02:13:06;;;;;;;35.88;4.05;;;;;;;;;;5108691;28;20058;-80
2022/12/24 02:15:41;;;;;;;32.70;4.28;;;;;;;;;;5108332;27;20079;-80
2022/12/24 02:18:19;;;;;;;32.70;4.55;;;;;;;;;;5104449;28;20048;-80
2022/12/24 02:21:15;;;;;;;33.88;4.00;;;;;;;;;;5110877;27;20652;-79
2022/12/24 02:23:42;;;;;;;36.50;4.45;;;;;;;;;;5095699;28;20052;-80
2022/12/24 02:26:14;;;;;;;33.67;4.47;;;;;;;;;;5109481;27;20503;-80
2022/12/24 02:28:56;;;;;;;32.45;4.35;;;;;;;;;;5105012;27;20064;-80
2022/12/24 02:31:22;;;;;;;32.50;4.40;;;;;;;;;;5111009;28;20056;-81
2022/12/24 02:33:53;;;;;;;42.53;4.68;;;;;;;;;;5105794;28;20130;-80
2022/12/24 02:36:35;;;;;;;29.48;3.80;;;;;;;;;;5106300;27;20098;-80
2022/12/24 02:39:07;;;;;;;27.67;4.00;;;;;;;;;;5100552;28;20060;-80
2022/12/24 02:44:21;;;;;;;27.85;4.60;;;;;;;;;;5109512;27;20063;-80
2022/12/24 02:46:48;;;;;;;31.90;4.22;;;;;;;;;;5108708;28;20041;-80
2022/12/24 02:49:14;;;;;;;31.40;4.10;;;;;;;;;;5110448;27;20049;-80
2022/12/24 02:51:41;;;;;;;34.50;4.80;;;;;;;;;;5101857;27;20043;-81
2022/12/24 02:54:07;;;;;;;30.02;3.30;;;;;;;;;;5110078;27;20082;-81
2022/12/24 02:56:52;;;;;;;27.50;3.00;;;;;;;;;;5106964;27;20084;-80
2022/12/24 02:59:37;;;;;;;34.38;3.50;;;;;;;;;;5110026;27;20052;-81
2022/12/24 03:02:33;;;;;;;25.33;3.70;;;;;;;;;;5109199;27;20056;-81
2022/12/24 03:05:19;;;;;;;25.92;3.33;;;;;;;;;;5094627;27;20135;-81
2022/12/24 03:07:57;;;;;;;23.98;3.35;;;;;;;;;;5108651;28;20080;-80
2022/12/24 03:10:43;;;;;;;34.90;3.42;;;;;;;;;;5106397;27;20065;-81
2022/12/24 03:13:14;;;;;;;24.50;2.88;;;;;;;;;;5107632;28;20051;-81
2022/12/24 03:15:41;;;;;;;;;;;;;;;;;;5110372;27;20078;-81
2022/12/24 03:18:09;;;;;;;25.98;3.33;;;;;;;;;;5109373;27;48478;-81
2022/12/24 03:20:40;;;;;;;23.73;3.28;;;;;;;;;;5107811;27;20320;-81
2022/12/24 03:23:07;;;;;;;30.00;3.20;;;;;;;;;;5108524;27;20055;-80
2022/12/24 03:25:34;;;;;;;32.40;4.38;;;;;;;;;;5104635;27;20099;-81
2022/12/24 03:28:02;;;;;;;30.88;3.30;;;;;;;;;;5109664;28;20135;-80
2022/12/24 03:30:29;;;;;;;37.20;5.82;;;;;;;;;;5107948;28;20059;-80
2022/12/24 03:32:56;;;;;;;32.22;3.92;;;;;;;;;;5105306;27;20274;-81
2022/12/24 03:35:22;;;;;;;37.70;4.70;;;;;;;;;;5111538;27;20129;-81
2022/12/24 03:37:49;;;;;;;43.10;4.80;;;;;;;;;;5111140;27;20646;-80
2022/12/24 03:40:16;;;;;;;45.55;4.88;;;;;;;;;;5111763;27;20874;-81
2022/12/24 03:42:43;;;;;;;35.42;4.25;;;;;;;;;;5108742;27;20057;-81
2022/12/24 03:45:09;;;;;;;40.35;4.65;;;;;;;;;;5100764;27;20437;-81
2022/12/24 03:47:36;;;;;;;37.95;4.30;;;;;;;;;;5113394;27;20052;-81
2022/12/24 03:50:02;;;;;;;39.22;5.10;;;;;;;;;;5112725;27;20515;-81
2022/12/24 03:52:28;;;;;;;41.53;4.50;;;;;;;;;;5110854;27;20036;-81
2022/12/24 03:54:55;;;;;;;43.92;6.93;;;;;;;;;;5110876;27;20052;-81
2022/12/24 03:57:21;;;;;;;38.00;4.95;;;;;;;;;;5112093;27;20060;-81
2022/12/24 03:59:48;;;;;;;38.97;4.07;;;;;;;;;;5106472;28;20173;-81
2022/12/24 04:02:14;;;;;;;29.70;3.88;;;;;;;;;;5100234;27;20065;-81
2022/12/24 04:04:41;;;;;;;37.70;4.28;;;;;;;;;;5111641;27;20048;-81
2022/12/24 04:07:07;;;;;;;53.92;4.82;;;;;;;;;;5110611;27;20602;-81
2022/12/24 04:09:33;;;;;;;40.80;4.47;;;;;;;;;;5108237;27;20534;-81
2022/12/24 04:12:00;;;;;;;30.88;3.95;;;;;;;;;;5094904;28;20136;-81
2022/12/24 04:14:26;;;;;;;51.53;4.82;;;;;;;;;;5112124;27;20173;-81
2022/12/24 04:16:53;;;;;;;44.10;4.93;;;;;;;;;;5098278;27;20056;-80
2022/12/24 04:19:19;;;;;;;37.42;5.07;;;;;;;;;;5105427;28;20507;-81
2022/12/24 04:21:45;;;;;;;34.35;4.28;;;;;;;;;;5107798;27;20051;-81
2022/12/24 04:24:12;;;;;;;37.80;4.38;;;;;;;;;;5112281;27;20056;-81
2022/12/24 04:26:38;;;;;;;43.22;4.82;;;;;;;;;;5112391;27;20048;-81
2022/12/24 04:29:05;;;;;;;33.83;4.18;;;;;;;;;;5106832;27;20489;-80
2022/12/24 04:31:31;;;;;;;40.83;4.32;;;;;;;;;;5110747;28;20093;-81
2022/12/24 04:33:57;;;;;;;23.42;4.35;;;;;;;;;;5101229;27;20072;-81
2022/12/24 04:36:24;;;;;;;38.13;5.10;;;;;;;;;;5110897;27;20066;-81
2022/12/24 04:38:50;;;;;;;34.13;4.97;;;;;;;;;;5111603;27;20144;-81
2022/12/24 04:41:18;;;;;;;28.88;4.43;;;;;;;;;;5111112;27;20044;-81
2022/12/24 04:43:50;;;;;;;30.92;4.07;;;;;;;;;;5111004;28;20083;-81
2022/12/24 04:46:18;;;;;;;26.50;3.33;;;;;;;;;;5110852;27;20052;-81
2022/12/24 04:48:45;;;;;;;35.67;5.88;;;;;;;;;;5111377;27;20052;-81
2022/12/24 04:51:12;;;;;;;34.85;5.03;;;;;;;;;;5099760;27;20052;-80
2022/12/24 04:53:39;;;;;;;39.17;5.10;;;;;;;;;;5111924;27;20049;-81
2022/12/24 04:56:07;;;;;;;33.55;4.28;;;;;;;;;;5109216;27;20055;-81
2022/12/24 04:58:34;;;;;;;35.50;4.63;;;;;;;;;;5110119;27;20054;-81
2022/12/24 05:01:04;;;;;;;25.35;3.75;;;;;;;;;;5112180;28;20056;-81
2022/12/24 05:03:30;;;;;;;41.90;4.35;;;;;;;;;;5112499;28;20070;-81
2022/12/24 05:06:04;;;;;;;38.88;4.00;;;;;;;;;;5109537;27;20486;-81
2022/12/24 05:08:30;;;;;;;41.47;5.03;;;;;;;;;;5104467;27;20054;-80
2022/12/24 05:10:57;;;;;;;40.08;4.78;;;;;;;;;;5106520;27;20864;-80
2022/12/24 05:13:24;;;;;;;36.33;4.70;;;;;;;;;;5107530;27;20062;-81
2022/12/24 05:15:59;;;;;;;27.60;3.65;;;;;;;;;;5108944;27;20059;-80
2022/12/24 05:18:26;;;;;;;35.00;4.25;;;;;;;;;;5109200;28;20054;-80
2022/12/24 05:20:52;;;;;;;38.22;3.72;;;;;;;;;;5109385;27;20066;-80
2022/12/24 05:26:20;;;;;;;37.97;4.53;;;;;;;;;;5106181;28;20082;-80
2022/12/24 05:28:52;;;;;;;46.90;6.97;;;;;;;;;;5109509;27;20564;-80
2022/12/24 05:31:20;;;;;;;43.22;5.47;;;;;;;;;;5108822;28;20066;-80
2022/12/24 05:33:47;;;;;;;39.70;4.75;;;;;;;;;;5105363;27;20646;-81
2022/12/24 05:36:14;;;;;;;37.33;5.03;;;;;;;;;;5106796;27;20055;-80
2022/12/24 05:38:40;;;;;;;38.22;4.88;;;;;;;;;;5104466;28;20060;-82
2022/12/24 05:41:08;;;;;;;40.83;4.88;;;;;;;;;;5107839;28;20060;-81
2022/12/24 05:43:35;;;;;;;38.95;4.85;;;;;;;;;;5109360;27;20063;-81
2022/12/24 05:46:04;;;;;;;43.10;4.88;;;;;;;;;;5108371;27;20048;-81
2022/12/24 05:48:31;;;;;;;48.92;4.88;;;;;;;;;;5110178;27;20099;-82
2022/12/24 05:50:57;;;;;;;58.00;7.05;;;;;;;;;;5108874;27;20048;-81
2022/12/24 05:53:24;;;;;;;47.72;4.68;;;;;;;;;;5104422;28;20076;-82
2022/12/24 05:55:51;;;;;;;46.08;4.40;;;;;;;;;;5109317;27;20051;-82
2022/12/24 05:58:17;;;;;;;57.53;5.65;;;;;;;;;;5104328;27;20056;-81
2022/12/24 06:00:44;;;;;;;38.22;4.47;;;;;;;;;;5108499;27;20091;-82
2022/12/24 06:03:10;;;;;;;42.90;5.20;;;;;;;;;;5107591;27;20056;-81
2022/12/24 06:05:37;;;;;;;48.88;6.07;;;;;;;;;;5107714;27;20056;-81
2022/12/24 06:08:04;;;;;;;35.50;6.07;;;;;;;;;;5107278;27;20600;-81
2022/12/24 06:10:30;;;;;;;54.75;5.93;;;;;;;;;;5107433;27;20557;-82
2022/12/24 06:12:57;;;;;;;46.33;5.07;;;;;;;;;;5108036;27;20643;-82
2022/12/24 06:15:23;;;;;;;52.85;5.57;;;;;;;;;;5099505;27;20052;-81
2022/12/24 06:17:51;;;;;;;43.50;6.07;;;;;;;;;;5108330;27;20534;-82
2022/12/24 06:20:17;;;;;;;48.38;5.88;;;;;;;;;;5108673;27;20052;-82
2022/12/24 06:22:43;;;;;;;57.42;5.78;;;;;;;;;;5108017;27;20494;-80
2022/12/24 06:25:10;;;;;;;40.55;4.70;;;;;;;;;;5107742;27;20481;-80
2022/12/24 06:27:36;;;;;;;50.10;5.25;;;;;;;;;;5105141;28;20048;-81
2022/12/24 06:30:03;;;;;;;48.60;6.00;;;;;;;;;;5108949;27;20157;-81
2022/12/24 06:32:29;;;;;;;56.42;5.95;;;;;;;;;;5097937;28;20162;-81
2022/12/24 06:34:56;;;;;;;46.63;5.00;;;;;;;;;;5103809;28;20063;-81
2022/12/24 06:37:23;;;;;;;59.63;6.10;;;;;;;;;;5104778;27;20056;-81
2022/12/24 06:39:49;;;;;;;50.45;4.97;;;;;;;;;;5107639;28;20614;-81
2022/12/24 06:42:16;;;;;;;50.17;5.95;;;;;;;;;;5110272;28;20059;-81
2022/12/24 06:44:43;;;;;;;49.22;6.53;;;;;;;;;;5108724;27;20530;-81
2022/12/24 06:47:09;;;;;;;46.72;5.60;;;;;;;;;;5105260;27;20054;-80
2022/12/24 06:49:36;;;;;;;54.20;5.82;;;;;;;;;;5098694;28;20592;-81
2022/12/24 06:52:02;;;;;;;46.58;6.57;;;;;;;;;;5110336;27;20048;-82
2022/12/24 06:54:30;;;;;;;54.17;6.22;;;;;;;;;;5107448;27;20403;-81
2022/12/24 06:56:56;;;;;;;53.13;5.78;;;;;;;;;;5109084;27;20048;-80
2022/12/24 06:59:23;;;;;;;46.83;6.15;;;;;;;;;;5104456;27;20651;-81
2022/12/24 07:01:50;;;;;;;53.00;6.28;;;;;;;;;;5106442;27;20415;-81
2022/12/24 07:04:17;;;;;;;56.40;5.95;;;;;;;;;;5108450;27;20075;-81
2022/12/24 07:06:46;;;;;;;56.97;6.20;;;;;;;;;;5103124;27;20072;-81
2022/12/24 07:09:13;;;;;;;54.88;6.95;;;;;;;;;;5107525;27;20115;-81
2022/12/24 07:11:39;;;;;;;42.90;4.93;;;;;;;;;;5107167;28;20083;-80
2022/12/24 07:14:06;;;;;;;41.83;4.85;;;;;;;;;;5108370;28;20044;-81
2022/12/24 07:16:33;;;;;;;59.40;7.00;;;;;;;;;;5108224;27;20055;-81
2022/12/24 07:19:00;;;;;;;41.75;4.18;;;;;;;;;;5106785;27;20048;-81
2022/12/24 07:21:26;;;;;;;50.28;5.45;;;;;;;;;;5110144;28;20044;-81
2022/12/24 07:23:53;;;;;;;51.92;5.97;;;;;;;;;;5102686;27;20048;-80
2022/12/24 07:26:20;;;;;;;41.90;4.30;;;;;;;;;;5108105;28;20137;-80
2022/12/24 07:28:49;;;;;;;54.20;5.70;;;;;;;;;;5108846;27;20862;-81
2022/12/24 07:31:17;;;;;;;56.90;6.43;;;;;;;;;;5108860;27;20052;-79
2022/12/24 07:33:46;;;;;;;46.83;4.97;;;;;;;;;;5108864;27;20056;-81
2022/12/24 07:36:17;;;;;;;41.92;4.32;;;;;;;;;;5109025;27;20060;-81
2022/12/24 07:38:45;;;;;;;33.28;5.72;;;;;;;;;;5109063;27;20477;-81
2022/12/24 07:41:14;;;;;;;43.67;5.40;;;;;;;;;;5109019;27;20060;-81
2022/12/24 07:43:42;;;;;;;47.00;4.93;;;;;;;;;;5109049;27;20102;-81
2022/12/24 07:46:10;;;;;;;46.65;5.25;;;;;;;;;;5107743;27;20056;-81
2022/12/24 07:48:39;;;;;;;52.95;7.15;;;;;;;;;;5108538;27;20671;-80
2022/12/24 07:51:29;;;;;;;41.25;5.97;;;;;;;;;;5108414;27;20110;-80
2022/12/24 07:53:55;;;;;;;43.20;4.70;;;;;;;;;;5117541;27;20067;-81
2022/12/24 07:56:22;;;;;;;42.75;5.53;;;;;;;;;;5144363;27;20083;-80
2022/12/24 07:58:49;;;;;;;45.30;4.78;;;;;;;;;;5113498;27;20056;-80
2022/12/24 08:01:16;;;;;;;43.47;5.13;;;;;;;;;;5106003;27;20185;-81
2022/12/24 08:03:42;;;;;;;35.67;4.80;;;;;;;;;;5103603;28;20110;-81
2022/12/24 08:06:09;;;;;;;44.65;5.43;;;;;;;;;;5110235;27;20064;-81
2022/12/24 08:08:36;;;;;;;35.28;5.30;;;;;;;;;;5108509;28;20465;-82
2022/12/24 08:11:04;;;;;;;38.10;5.60;;;;;;;;;;5107318;27;20080;-82
2022/12/24 08:13:32;;;;;;;49.13;5.10;;;;;;;;;;5096225;28;20100;-81
2022/12/24 08:15:59;;;;;;;39.70;4.60;;;;;;;;;;5098942;27;20064;-82
2022/12/24 08:18:26;;;;;;;41.75;5.15;;;;;;;;;;5114325;27;20044;-81
2022/12/24 08:20:54;;;;;;;51.00;5.25;;;;;;;;;;5114231;27;20056;-81
2022/12/24 08:23:22;;;;;;;37.47;5.50;;;;;;;;;;5117028;27;20054;-82
2022/12/24 08:33:07;;;;;;;36.75;5.20;;;;;;;;;;5112790;28;20044;-82
2022/12/24 08:35:34;;;;;;;39.70;4.80;;;;;;;;;;5113592;28;20086;-81
2022/12/24 08:38:00;;;;;;;28.02;4.07;;;;;;;;;;5115197;28;20048;-82
2022/12/24 08:40:27;;;;;;;50.42;5.50;;;;;;;;;;5116049;28;20870;-81
2022/12/24 08:42:53;;;;;;;43.72;5.38;;;;;;;;;;5117245;27;20067;-81
2022/12/24 08:45:20;;;;;;;43.60;5.60;;;;;;;;;;5115321;28;20040;-81
2022/12/24 08:47:46;;;;;;;51.75;6.28;;;;;;;;;;5106787;27;20063;-82
2022/12/24 08:50:13;;;;;;;43.25;4.93;;;;;;;;;;5114957;28;20062;-82
2022/12/24 08:52:39;;;;;;;44.20;5.10;;;;;;;;;;5115208;27;20438;-81
2022/12/24 08:55:06;;;;;;;46.95;5.85;;;;;;;;;;5116761;27;20064;-81
2022/12/24 08:57:36;;;;;;;47.30;5.75;;;;;;;;;;5111503;27;20114;-81
2022/12/24 09:00:06;;;;;;;37.47;4.93;;;;;;;;;;5096901;28;20102;-81
2022/12/24 09:02:32;;;;;;;38.65;5.88;;;;;;;;;;5096150;28;20054;-81
2022/12/24 09:04:59;;;;;;;37.72;6.22;;;;;;;;;;5097324;28;20060;-81
2022/12/24 09:07:25;;;;;;;33.78;4.82;;;;;;;;;;5107540;27;20509;-81
2022/12/24 09:09:52;;;;;;;41.85;6.72;;;;;;;;;;5115262;27;20058;-81
2022/12/24 09:12:18;;;;;;;36.90;6.03;;;;;;;;;;5112442;28;20468;-81
2022/12/24 09:14:44;;;;;;;40.83;7.32;;;;;;;;;;5113563;28;20054;-80
2022/12/24 09:17:11;;;;;;;30.70;6.28;;;;;;;;;;5113105;28;20059;-80
2022/12/24 09:19:37;;;;;;;33.70;6.03;;;;;;;;;;5112920;27;20055;-81
2022/12/24 09:22:04;;;;;;;34.92;5.95;;;;;;;;;;5113604;27;20139;-82
2022/12/24 09:24:31;;;;;;;33.50;6.75;;;;;;;;;;5115011;27;20538;-82
2022/12/24 09:26:58;;;;;;;41.42;6.18;;;;;;;;;;5116497;27;20049;-81
2022/12/24 09:29:24;;;;;;;33.30;5.35;;;;;;;;;;5115923;27;20885;-81
2022/12/24 09:31:51;;;;;;;40.25;6.05;;;;;;;;;;5114196;27;20062;-82
2022/12/24 09:34:17;;;;;;;30.02;5.75;;;;;;;;;;5110988;27;20884;-82
2022/12/24 09:36:45;;;;;;;43.40;5.82;;;;;;;;;;5105067;27;20048;-82
2022/12/24 09:39:11;;;;;;;39.25;5.13;;;;;;;;;;5100023;28;20122;-82
2022/12/24 09:41:38;;;;;;;29.08;6.43;;;;;;;;;;5105882;28;20164;-81
2022/12/24 09:44:14;;;;;;;31.83;5.25;;;;;;;;;;5103607;28;20059;-80
2022/12/24 09:46:44;;;;;;;37.63;5.60;;;;;;;;;;5106996;27;20064;-80
2022/12/24 09:49:15;;;;;;;30.17;4.85;;;;;;;;;;5111800;27;20060;-81
2022/12/24 09:51:44;;;;;;;39.95;6.10;;;;;;;;;;5096967;28;20056;-80
2022/12/24 09:54:11;;;;;;;37.53;5.30;;;;;;;;;;5111798;27;20044;-80
2022/12/24 09:56:39;;;;;;;30.95;4.93;;;;;;;;;;5099395;27;20048;-80
2022/12/24 09:59:10;;;;;;;36.53;5.72;;;;;;;;;;5110760;27;20048;-81
2022/12/24 10:01:36;;;;;;;;;;;;;;;;;;5110210;27;20052;-80
2022/12/24 10:04:11;;;;;;;42.55;5.22;;;;;;;;;;5106049;27;43641;-81
2022/12/24 10:06:52;;;;;;;33.92;4.93;;;;;;;;;;5110975;27;20052;-81
2022/12/24 10:09:25;;;;;;;37.53;5.60;;;;;;;;;;5112905;27;20059;-81
2022/12/24 10:11:54;;;;;;;27.02;4.85;;;;;;;;;;5109558;28;20568;-80
2022/12/24 10:14:28;;;;;;;32.50;4.32;;;;;;;;;;5105955;27;20063;-80
2022/12/24 10:17:06;;;;;;;26.48;4.10;;;;;;;;;;5109612;27;20143;-81
2022/12/24 10:19:43;;;;;;;30.65;4.15;;;;;;;;;;5108402;27;20099;-80
2022/12/24 10:22:12;;;;;;;38.25;5.50;;;;;;;;;;5111080;28;20430;-80
2022/12/24 10:24:57;;;;;;;39.88;5.28;;;;;;;;;;5112183;27;20609;-80
2022/12/24 10:27:27;;;;;;;39.08;5.18;;;;;;;;;;5110346;27;20052;-81
2022/12/24 10:29:57;;;;;;;29.33;5.40;;;;;;;;;;5105410;28;20058;-80
2022/12/24 10:32:25;;;;;;;31.48;5.35;;;;;;;;;;5110425;28;20056;-80
2022/12/24 10:34:56;;;;;;;37.40;5.45;;;;;;;;;;5111877;28;21046;-80
2022/12/24 10:37:22;;;;;;;;;;;;;;;;;;5108162;27;20056;-80
2022/12/24 10:39:49;;;;;;;28.20;4.65;;;;;;;;;;5106707;28;46945;-81
2022/12/24 10:42:16;;;;;;;28.60;4.00;;;;;;;;;;5107602;28;20111;-81
2022/12/24 10:44:44;;;;;;;38.70;5.28;;;;;;;;;;5107437;27;20056;-81
2022/12/24 10:47:11;;;;;;;25.52;3.42;;;;;;;;;;5101168;28;20070;-81
2022/12/24 10:49:43;;;;;;;34.42;4.63;;;;;;;;;;5107974;27;20052;-81
2022/12/24 10:52:12;;;;;;;30.40;5.40;;;;;;;;;;5110338;27;20084;-81
2022/12/24 10:54:58;;;;;;;42.53;5.43;;;;;;;;;;5107106;27;20044;-81
2022/12/24 10:57:25;;;;;;;28.27;4.68;;;;;;;;;;5108697;28;20323;-81
2022/12/24 10:59:53;;;;;;;38.30;5.47;;;;;;;;;;5110884;27;20727;-81
2022/12/24 11:02:30;;;;;;;32.10;4.80;;;;;;;;;;5110679;27;20371;-81
2022/12/24 11:04:59;;;;;;;26.33;4.45;;;;;;;;;;5103445;27;20057;-81
2022/12/24 11:07:25;;;;;;;35.13;4.85;;;;;;;;;;5109861;27;20585;-81
2022/12/24 11:09:59;;;;;;;32.85;5.15;;;;;;;;;;5108373;28;20131;-81
2022/12/24 11:12:30;;;;;;;30.25;5.35;;;;;;;;;;5111054;27;20060;-81
2022/12/24 11:15:00;;;;;;;26.95;4.40;;;;;;;;;;5110223;27;20098;-81
2022/12/24 11:17:27;;;;;;;27.90;4.35;;;;;;;;;;5090861;28;20473;-81
2022/12/24 11:19:53;;;;;;;26.50;3.88;;;;;;;;;;5094919;28;20052;-81
2022/12/24 11:22:22;;;;;;;24.35;4.22;;;;;;;;;;5101757;27;20146;-81
2022/12/24 11:25:17;;;;;;;30.05;4.07;;;;;;;;;;5104301;27;20113;-80
2022/12/24 11:27:48;;;;;;;22.40;4.00;;;;;;;;;;5106443;28;20055;-81
2022/12/24 11:30:14;;;;;;;;;;;;;;;;;;5106801;28;20931;-81
2022/12/24 11:32:41;;;;;;;34.83;3.88;;;;;;;;;;5105519;28;45549;-81
2022/12/24 11:35:14;;;;;;;28.02;4.10;;;;;;;;;;5099595;28;20474;-80
2022/12/24 11:37:40;;;;;;;32.22;4.82;;;;;;;;;;5091000;28;20047;-81
2022/12/24 11:40:17;;;;;;;25.95;4.72;;;;;;;;;;5105964;28;20890;-81
2022/12/24 11:42:43;;;;;;;26.05;4.32;;;;;;;;;;5090666;28;20517;-81
2022/12/24 11:45:19;;;;;;;28.85;3.63;;;;;;;;;;5108666;28;20598;-81
2022/12/24 11:47:45;;;;;;;23.48;3.60;;;;;;;;;;5109695;28;20061;-81
2022/12/24 11:50:28;;;;;;;36.53;4.38;;;;;;;;;;5110855;27;20143;-80
2022/12/24 11:53:07;;;;;;;20.42;4.38;;;;;;;;;;5109629;27;20126;-80
2022/12/24 11:56:00;;;;;;;24.38;3.40;;;;;;;;;;5097721;27;20060;-80
2022/12/24 11:58:44;;;;;;;21.08;3.42;;;;;;;;;;5107037;28;20060;-80
2022/12/24 12:01:11;;;;;;;27.17;4.25;;;;;;;;;;5114731;27;20052;-80
2022/12/24 12:03:45;;;;;;;21.50;3.88;;;;;;;;;;5110765;27;20059;-80
2022/12/24 12:06:12;;;;;;;;;;;;;;;;;;5114102;27;20577;-80
2022/12/24 12:08:39;;;;;;;26.38;4.63;;;;;;;;;;5113966;28;48094;-80
2022/12/24 12:11:10;;;;;;;27.17;4.35;;;;;;;;;;5110910;27;20404;-80
2022/12/24 12:13:39;;;;;;;22.38;4.57;;;;;;;;;;5109043;28;20060;-80
2022/12/24 12:16:22;;;;;;;33.00;4.53;;;;;;;;;;5110977;27;20058;-80
2022/12/24 12:18:56;;;;;;;30.83;4.93;;;;;;;;;;5112285;27;20059;-80
2022/12/24 12:21:24;;;;;;;28.75;4.25;;;;;;;;;;5101221;27;20054;-81
2022/12/24 12:23:53;;;;;;;26.33;4.18;;;;;;;;;;5110273;28;20048;-80
2022/12/24 12:26:24;;;;;;;27.38;4.55;;;;;;;;;;5111086;27;20471;-81
2022/12/24 12:28:54;;;;;;;24.83;4.18;;;;;;;;;;5104611;28;20103;-81
2022/12/24 12:31:29;;;;;;;33.17;5.50;;;;;;;;;;5118716;27;20055;-81
2022/12/24 12:34:04;;;;;;;27.63;4.68;;;;;;;;;;5111395;27;20059;-80
2022/12/24 12:36:38;;;;;;;24.73;4.97;;;;;;;;;;5112504;27;20048;-80
2022/12/24 12:39:05;;;;;;;30.17;5.07;;;;;;;;;;5112954;27;20070;-81
2022/12/24 12:41:37;;;;;;;29.38;4.20;;;;;;;;;;5113877;27;20106;-81
2022/12/24 12:44:22;;;;;;;23.80;4.32;;;;;;;;;;5111517;27;20782;-81
2022/12/24 12:47:01;;;;;;;32.25;5.07;;;;;;;;;;5103401;27;20059;-81
2022/12/24 12:49:36;;;;;;;23.45;4.25;;;;;;;;;;5109215;27;20484;-81
2022/12/24 12:52:09;;;;;;;28.38;4.93;;;;;;;;;;5112213;27;20063;-81
2022/12/24 12:54:35;;;;;;;19.05;4.30;;;;;;;;;;5112149;27;20063;-81
2022/12/24 12:57:05;;;;;;;27.92;5.07;;;;;;;;;;5109208;27;20052;-80
2022/12/24 12:59:36;;;;;;;26.33;5.20;;;;;;;;;;5113970;27;20056;-81
2022/12/24 13:02:16;;;;;;;28.23;4.25;;;;;;;;;;5111399;28;20451;-81
2022/12/24 13:05:01;;;;;;;30.25;5.03;;;;;;;;;;5103262;28;20425;-81
2022/12/24 13:07:47;;;;;;;32.92;5.05;;;;;;;;;;5106851;27;20064;-80
2022/12/24 13:10:14;;;;;;;30.98;5.15;;;;;;;;;;5112451;28;20063;-81
2022/12/24 13:12:49;;;;;;;31.67;4.72;;;;;;;;;;5107586;27;20075;-80
2022/12/24 13:15:38;;;;;;;21.65;4.75;;;;;;;;;;5109351;27;20052;-81
2022/12/24 13:18:04;;;;;;;28.77;5.18;;;;;;;;;;5104338;28;20054;-81
2022/12/24 13:20:32;;;;;;;26.98;3.63;;;;;;;;;;5107653;27;20047;-81
2022/12/24 13:23:00;;;;;;;25.58;4.63;;;;;;;;;;5105576;28;20109;-80
2022/12/24 13:25:27;;;;;;;27.35;3.40;;;;;;;;;;5110258;27;20052;-80
2022/12/24 13:27:54;;;;;;;21.90;3.13;;;;;;;;;;5109647;27;20048;-80
2022/12/24 13:30:33;;;;;;;29.95;4.22;;;;;;;;;;5108737;28;20080;-80
2022/12/24 13:33:00;;;;;;;24.08;4.28;;;;;;;;;;5113401;28;20163;-80
2022/12/24 13:35:29;;;;;;;18.95;3.47;;;;;;;;;;5111872;27;20161;-80
2022/12/24 13:38:32;;;;;;;27.02;3.17;;;;;;;;;;5111296;27;20052;-80
2022/12/24 13:41:17;;;;;;;26.08;3.33;;;;;;;;;;5091967;28;20085;-80
2022/12/24 13:44:02;;;;;;;20.23;4.07;;;;;;;;;;5111659;27;20083;-80
2022/12/24 13:46:49;;;;;;;17.85;3.15;;;;;;;;;;5109013;27;20059;-80
2022/12/24 13:49:20;;;;;;;27.90;3.83;;;;;;;;;;5109311;28;20050;-80
2022/12/24 13:51:48;;;;;;;18.25;3.15;;;;;;;;;;5107312;27;20066;-81
2022/12/24 13:54:17;;;;;;;21.25;3.75;;;;;;;;;;5105410;27;20664;-80
2022/12/24 13:56:44;;;;;;;25.73;4.20;;;;;;;;;;5099676;27;20071;-80
2022/12/24 13:59:25;;;;;;;22.08;4.32;;;;;;;;;;5097261;27;20088;-80
2022/12/24 14:01:56;;;;;;;20.90;3.40;;;;;;;;;;5108553;28;20113;-80
2022/12/24 14:04:27;;;;;;;24.27;4.25;;;;;;;;;;5109717;27;20052;-80
2022/12/24 14:06:56;;;;;;;27.02;3.53;;;;;;;;;;5112336;27;20426;-81
2022/12/24 14:09:24;;;;;;;17.77;3.03;;;;;;;;;;5108828;27;20039;-80
2022/12/24 14:12:02;;;;;;;28.58;4.10;;;;;;;;;;5108976;27;20059;-80
2022/12/24 14:14:38;;;;;;;24.00;3.75;;;;;;;;;;5106120;28;20134;-80
2022/12/24 14:17:20;;;;;;;20.02;3.03;;;;;;;;;;5114114;27;20040;-80
2022/12/24 14:19:49;;;;;;;27.30;3.00;;;;;;;;;;5111430;27;20095;-80
2022/12/24 14:22:27;;;;;;;20.30;3.17;;;;;;;;;;5109083;27;20140;-80
2022/12/24 14:25:01;;;;;;;19.42;3.05;;;;;;;;;;5110269;28;20059;-80
2022/12/24 14:27:32;;;;;;;18.77;3.28;;;;;;;;;;5108222;27;20535;-80
2022/12/24 14:30:07;;;;;;;25.98;3.65;;;;;;;;;;5104957;28;20063;-80
2022/12/24 14:32:38;;;;;;;22.17;4.22;;;;;;;;;;5107775;27;20056;-80
2022/12/24 14:35:04;;;;;;;;;;;;;;;;;;5111783;27;20044;-81
2022/12/24 14:37:30;;;;;;;23.00;3.55;;;;;;;;;;5109944;28;42893;-80
2022/12/24 14:40:00;;;;;;;27.10;4.85;;;;;;;;;;5104373;28;20062;-80
2022/12/24 14:42:48;;;;;;;28.00;4.93;;;;;;;;;;5109781;27;20056;-80
2022/12/24 14:45:17;;;;;;;18.52;3.40;;;;;;;;;;5109390;28;20047;-80
2022/12/24 14:48:03;;;;;;;28.90;4.93;;;;;;;;;;5111837;27;20087;-80
2022/12/24 14:50:41;;;;;;;21.30;3.22;;;;;;;;;;5108319;27;20076;-80
2022/12/24 14:53:17;;;;;;;26.63;3.85;;;;;;;;;;5106486;27;20059;-80
2022/12/24 14:55:45;;;;;;;24.00;3.40;;;;;;;;;;5104624;28;20762;-80
2022/12/24 14:58:20;;;;;;;34.97;3.67;;;;;;;;;;5108054;27;20088;-80
2022/12/24 15:00:47;;;;;;;20.40;3.47;;;;;;;;;;5098309;27;20060;-80
2022/12/24 15:03:14;;;;;;;30.88;3.50;;;;;;;;;;5105443;28;20059;-80